Blessing Sw — 3FIP7 — position and weather

sailwx.info

Track history (hours):
 
Tides and Currents Weather Stations Pressure Air Temp Water Temp Dewpoint Dewpoint Depression Visibility Wind Speed Wind Dir Waves Ship Positions

Blessing Sw

Last reported at 2016-Aug-11 12:33 UTC. Time now 2016-Oct-01 20:38 UTC.
Position N 01°55' E 102°19'.
Warning: this ship's position is 51 days out of date.

Length 171 m; draft 5.4 m.

Type: Cargo ship. MMSI: 372085000.

Date/timePositionNaut miles runAvg speedWind from/ knotsBaromVisibWave heightAir tempDewpointWater temp
2016-Aug-11 12:33N 01°55' E 102°19'1212.2
2016-Aug-11 11:33N 01°50' E 102°30'1312.0
2016-Aug-11 10:26N 01°44' E 102°42'6510.8
2016-Aug-11 04:21N 01°12' E 103°39'7 6.9
2016-Aug-11 03:23N 01°17' E 103°44'2 0.5
2016-Aug-10 23:28N 01°18' E 103°43'0 0.0
2016-Aug-09 18:19N 01°18' E 103°43'0 0.0
2016-Aug-07 19:31N 01°18' E 103°43'4 4.5
2016-Aug-07 18:33N 01°15' E 103°46'7 6.6
2016-Aug-07 17:33N 01°14' E 103°53'2 1.5
2016-Aug-07 16:10N 01°16' E 103°54'0 0.0
2016-Aug-07 14:28N 01°16' E 103°54'0 0.0
2016-Aug-07 13:28N 01°16' E 103°54'0 0.0
2016-Aug-07 12:19N 01°16' E 103°54'0 0.1
2016-Aug-07 11:28N 01°16' E 103°54'0 0.1
2016-Aug-07 10:28N 01°16' E 103°54'0 0.1
2016-Aug-07 09:28N 01°16' E 103°54'0 0.0
2016-Aug-07 08:10N 01°16' E 103°54'0 0.0
2016-Aug-07 07:28N 01°16' E 103°54'0 0.1
2016-Aug-07 06:28N 01°16' E 103°54'0 0.1
2016-Aug-07 04:16N 01°16' E 103°54'0 0.0
2016-Aug-07 02:28N 01°16' E 103°54'0 0.0
2016-Aug-07 01:31N 01°16' E 103°54'0 0.1
2016-Aug-07 00:22N 01°16' E 103°54'0 0.0
2016-Aug-06 23:28N 01°16' E 103°54'0 0.0
2016-Aug-06 22:28N 01°16' E 103°54'0 0.1
2016-Aug-06 21:28N 01°16' E 103°54'0 0.1
2016-Aug-06 20:28N 01°16' E 103°54'0 0.0
2016-Aug-06 19:22N 01°16' E 103°54'0 0.1
2016-Aug-06 18:31N 01°16' E 103°54'0 0.1
2016-Aug-06 17:28N 01°16' E 103°54'0 0.0
2016-Aug-06 16:16N 01°16' E 103°54'0 0.0
2016-Aug-06 15:10N 01°16' E 103°54'0 0.0
2016-Aug-06 14:28N 01°16' E 103°54'0 0.0
2016-Aug-06 12:22N 01°16' E 103°54'0 0.0
2016-Aug-06 11:16N 01°16' E 103°54'0 0.1
2016-Aug-06 10:31N 01°16' E 103°54'0 0.1
2016-Aug-06 09:31N 01°16' E 103°54'0 0.2
2016-Aug-06 08:22N 01°16' E 103°54'0 0.0
2016-Aug-06 07:25N 01°16' E 103°54'0 0.1
2016-Aug-06 04:31N 01°16' E 103°54'0 0.0
2016-Aug-06 03:28N 01°16' E 103°54'0 0.1
2016-Aug-06 02:22N 01°16' E 103°54'0 0.0
2016-Aug-06 01:22N 01°16' E 103°54'0 0.0
2016-Aug-05 22:28N 01°16' E 103°54'0 0.0
2016-Aug-05 20:28N 01°16' E 103°54'0 0.0
2016-Aug-05 19:28N 01°16' E 103°54'0 0.1
2016-Aug-05 18:28N 01°16' E 103°54'0 0.1
2016-Aug-05 17:28N 01°16' E 103°54'0 0.1
2016-Aug-05 16:28N 01°16' E 103°54'0 0.0
2016-Aug-05 14:04N 01°16' E 103°54'0 0.0
2016-Aug-05 13:22N 01°16' E 103°54'0 0.1
2016-Aug-05 12:19N 01°16' E 103°54'0 0.1
2016-Aug-05 11:28N 01°16' E 103°54'0 0.1
2016-Aug-05 10:22N 01°16' E 103°54'0 0.1
2016-Aug-05 09:28N 01°16' E 103°54'0 0.0
2016-Aug-05 08:28N 01°16' E 103°54'0 0.0
2016-Aug-05 07:22N 01°16' E 103°54'0 0.0
2016-Aug-05 06:28N 01°16' E 103°54'0 0.1
2016-Aug-05 04:22N 01°16' E 103°54'0 0.0
2016-Aug-05 03:22N 01°16' E 103°54'0 0.1
2016-Aug-05 02:19N 01°16' E 103°54'0 0.1
2016-Aug-05 01:22N 01°16' E 103°54'0 0.0
2016-Aug-05 00:16N 01°16' E 103°54'0 0.1
2016-Aug-04 23:28N 01°16' E 103°54'0 0.0
2016-Aug-04 22:31N 01°16' E 103°54'0 0.0
2016-Aug-04 21:10N 01°16' E 103°54'0 0.0
2016-Aug-04 20:22N 01°16' E 103°54'0 0.0
2016-Aug-04 19:13N 01°16' E 103°54'0 0.0
2016-Aug-04 18:31N 01°16' E 103°54'0 0.0
2016-Aug-04 17:28N 01°16' E 103°54'0 0.1
2016-Aug-04 16:28N 01°16' E 103°54'0 0.1
2016-Aug-04 15:10N 01°16' E 103°54'0 0.0
2016-Aug-04 14:16N 01°16' E 103°54'0 0.0
2016-Aug-04 12:31N 01°16' E 103°54'0 0.1
2016-Aug-04 11:31N 01°16' E 103°54'0 0.1
2016-Aug-04 10:28N 01°16' E 103°54'0 0.1
2016-Aug-04 09:19N 01°16' E 103°54'0 0.0
2016-Aug-04 08:28N 01°16' E 103°54'0 0.0
2016-Aug-04 07:28N 01°16' E 103°54'0 0.0
2016-Aug-04 04:31N 01°16' E 103°54'0 0.0
2016-Aug-04 03:31N 01°16' E 103°54'0 0.1
2016-Aug-04 02:28N 01°16' E 103°54'0 0.1
2016-Aug-04 01:22N 01°16' E 103°54'0 0.0
2016-Aug-04 00:31N 01°16' E 103°54'0 0.1
2016-Aug-03 23:28N 01°16' E 103°54'0 0.1
2016-Aug-03 22:28N 01°16' E 103°54'0 0.1
2016-Aug-03 21:28N 01°16' E 103°54'0 0.1
2016-Aug-03 20:28N 01°16' E 103°54'0 0.0
2016-Aug-03 19:33N 01°16' E 103°54'0 0.0
2016-Aug-03 18:33N 01°16' E 103°54'0 0.0
2016-Aug-03 17:33N 01°16' E 103°54'0 0.1
2016-Aug-03 16:33N 01°16' E 103°54'0 0.1
2016-Aug-03 15:33N 01°16' E 103°54'0 0.4
2016-Aug-03 14:33N 01°16' E 103°54'2 1.7
2016-Aug-03 13:33N 01°14' E 103°55'  
Track history (hours):
 
Tides and Currents Weather Stations Pressure Air Temp Water Temp Dewpoint Dewpoint Depression Visibility Wind Speed Wind Dir Waves Ship Positions

Blessing Sw

Last reported at 2016-Aug-11 12:33 UTC. Time now 2016-Oct-01 20:38 UTC.
Position N 01°55' E 102°19'.
Warning: this ship's position is 51 days out of date.

Length 171 m; draft 5.4 m.

Type: Cargo ship. MMSI: 372085000.

Date/timePositionNaut miles runAvg speedWind from/ knotsBaromVisibWave heightAir tempDewpointWater temp
2016-Aug-11 12:33N 01°55' E 102°19'1212.2
2016-Aug-11 11:33N 01°50' E 102°30'1312.0
2016-Aug-11 10:26N 01°44' E 102°42'6510.8
2016-Aug-11 04:21N 01°12' E 103°39'7 6.9
2016-Aug-11 03:23N 01°17' E 103°44'2 0.5
2016-Aug-10 23:28N 01°18' E 103°43'0 0.0
2016-Aug-09 18:19N 01°18' E 103°43'0 0.0
2016-Aug-07 19:31N 01°18' E 103°43'4 4.5
2016-Aug-07 18:33N 01°15' E 103°46'7 6.6
2016-Aug-07 17:33N 01°14' E 103°53'2 1.5
2016-Aug-07 16:10N 01°16' E 103°54'0 0.0
2016-Aug-07 14:28N 01°16' E 103°54'0 0.0
2016-Aug-07 13:28N 01°16' E 103°54'0 0.0
2016-Aug-07 12:19N 01°16' E 103°54'0 0.1
2016-Aug-07 11:28N 01°16' E 103°54'0 0.1
2016-Aug-07 10:28N 01°16' E 103°54'0 0.1
2016-Aug-07 09:28N 01°16' E 103°54'0 0.0
2016-Aug-07 08:10N 01°16' E 103°54'0 0.0
2016-Aug-07 07:28N 01°16' E 103°54'0 0.1
2016-Aug-07 06:28N 01°16' E 103°54'0 0.1
2016-Aug-07 04:16N 01°16' E 103°54'0 0.0
2016-Aug-07 02:28N 01°16' E 103°54'0 0.0
2016-Aug-07 01:31N 01°16' E 103°54'0 0.1
2016-Aug-07 00:22N 01°16' E 103°54'0 0.0
2016-Aug-06 23:28N 01°16' E 103°54'0 0.0
2016-Aug-06 22:28N 01°16' E 103°54'0 0.1
2016-Aug-06 21:28N 01°16' E 103°54'0 0.1
2016-Aug-06 20:28N 01°16' E 103°54'0 0.0
2016-Aug-06 19:22N 01°16' E 103°54'0 0.1
2016-Aug-06 18:31N 01°16' E 103°54'0 0.1
2016-Aug-06 17:28N 01°16' E 103°54'0 0.0
2016-Aug-06 16:16N 01°16' E 103°54'0 0.0
2016-Aug-06 15:10N 01°16' E 103°54'0 0.0
2016-Aug-06 14:28N 01°16' E 103°54'0 0.0
2016-Aug-06 12:22N 01°16' E 103°54'0 0.0
2016-Aug-06 11:16N 01°16' E 103°54'0 0.1
2016-Aug-06 10:31N 01°16' E 103°54'0 0.1
2016-Aug-06 09:31N 01°16' E 103°54'0 0.2
2016-Aug-06 08:22N 01°16' E 103°54'0 0.0
2016-Aug-06 07:25N 01°16' E 103°54'0 0.1
2016-Aug-06 04:31N 01°16' E 103°54'0 0.0
2016-Aug-06 03:28N 01°16' E 103°54'0 0.1
2016-Aug-06 02:22N 01°16' E 103°54'0 0.0
2016-Aug-06 01:22N 01°16' E 103°54'0 0.0
2016-Aug-05 22:28N 01°16' E 103°54'0 0.0
2016-Aug-05 20:28N 01°16' E 103°54'0 0.0
2016-Aug-05 19:28N 01°16' E 103°54'0 0.1
2016-Aug-05 18:28N 01°16' E 103°54'0 0.1
2016-Aug-05 17:28N 01°16' E 103°54'0 0.1
2016-Aug-05 16:28N 01°16' E 103°54'0 0.0
2016-Aug-05 14:04N 01°16' E 103°54'0 0.0
2016-Aug-05 13:22N 01°16' E 103°54'0 0.1
2016-Aug-05 12:19N 01°16' E 103°54'0 0.1
2016-Aug-05 11:28N 01°16' E 103°54'0 0.1
2016-Aug-05 10:22N 01°16' E 103°54'0 0.1
2016-Aug-05 09:28N 01°16' E 103°54'0 0.0
2016-Aug-05 08:28N 01°16' E 103°54'0 0.0
2016-Aug-05 07:22N 01°16' E 103°54'0 0.0
2016-Aug-05 06:28N 01°16' E 103°54'0 0.1
2016-Aug-05 04:22N 01°16' E 103°54'0 0.0
2016-Aug-05 03:22N 01°16' E 103°54'0 0.1
2016-Aug-05 02:19N 01°16' E 103°54'0 0.1
2016-Aug-05 01:22N 01°16' E 103°54'0 0.0
2016-Aug-05 00:16N 01°16' E 103°54'0 0.1
2016-Aug-04 23:28N 01°16' E 103°54'0 0.0
2016-Aug-04 22:31N 01°16' E 103°54'0 0.0
2016-Aug-04 21:10N 01°16' E 103°54'0 0.0
2016-Aug-04 20:22N 01°16' E 103°54'0 0.0
2016-Aug-04 19:13N 01°16' E 103°54'0 0.0
2016-Aug-04 18:31N 01°16' E 103°54'0 0.0
2016-Aug-04 17:28N 01°16' E 103°54'0 0.1
2016-Aug-04 16:28N 01°16' E 103°54'0 0.1
2016-Aug-04 15:10N 01°16' E 103°54'0 0.0
2016-Aug-04 14:16N 01°16' E 103°54'0 0.0
2016-Aug-04 12:31N 01°16' E 103°54'0 0.1
2016-Aug-04 11:31N 01°16' E 103°54'0 0.1
2016-Aug-04 10:28N 01°16' E 103°54'0 0.1
2016-Aug-04 09:19N 01°16' E 103°54'0 0.0
2016-Aug-04 08:28N 01°16' E 103°54'0 0.0
2016-Aug-04 07:28N 01°16' E 103°54'0 0.0
2016-Aug-04 04:31N 01°16' E 103°54'0 0.0
2016-Aug-04 03:31N 01°16' E 103°54'0 0.1
2016-Aug-04 02:28N 01°16' E 103°54'0 0.1
2016-Aug-04 01:22N 01°16' E 103°54'0 0.0
2016-Aug-04 00:31N 01°16' E 103°54'0 0.1
2016-Aug-03 23:28N 01°16' E 103°54'0 0.1
2016-Aug-03 22:28N 01°16' E 103°54'0 0.1
2016-Aug-03 21:28N 01°16' E 103°54'0 0.1
2016-Aug-03 20:28N 01°16' E 103°54'0 0.0
2016-Aug-03 19:33N 01°16' E 103°54'0 0.0
2016-Aug-03 18:33N 01°16' E 103°54'0 0.0
2016-Aug-03 17:33N 01°16' E 103°54'0 0.1
2016-Aug-03 16:33N 01°16' E 103°54'0 0.1
2016-Aug-03 15:33N 01°16' E 103°54'0 0.4
2016-Aug-03 14:33N 01°16' E 103°54'2 1.7
2016-Aug-03 13:33N 01°14' E 103°55'  

Dump ship's entire track history